sensor_id;sensor_type;location;lat;lon;timestamp;temperature;humidity
10411;DHT22;5251;52.112;8.606;2022-08-11T00:02:32;18.80;87.30
10411;DHT22;5251;52.112;8.606;2022-08-11T00:05:09;18.80;86.80
10411;DHT22;5251;52.112;8.606;2022-08-11T00:07:52;18.70;87.10
10411;DHT22;5251;52.112;8.606;2022-08-11T00:10:28;18.70;87.10
10411;DHT22;5251;52.112;8.606;2022-08-11T00:12:58;18.60;86.80
10411;DHT22;5251;52.112;8.606;2022-08-11T00:15:27;18.60;87.20
10411;DHT22;5251;52.112;8.606;2022-08-11T00:17:59;18.60;87.70
10411;DHT22;5251;52.112;8.606;2022-08-11T00:20:31;18.50;88.30
10411;DHT22;5251;52.112;8.606;2022-08-11T00:23:10;18.50;88.80
10411;DHT22;5251;52.112;8.606;2022-08-11T00:25:41;18.50;89.50
10411;DHT22;5251;52.112;8.606;2022-08-11T00:28:28;18.40;90.00
10411;DHT22;5251;52.112;8.606;2022-08-11T00:31:06;18.40;90.10
10411;DHT22;5251;52.112;8.606;2022-08-11T00:36:02;18.30;90.50
10411;DHT22;5251;52.112;8.606;2022-08-11T00:38:32;18.30;90.80
10411;DHT22;5251;52.112;8.606;2022-08-11T00:43:46;18.20;91.30
10411;DHT22;5251;52.112;8.606;2022-08-11T00:46:21;18.20;91.40
10411;DHT22;5251;52.112;8.606;2022-08-11T00:54:42;18.00;92.10
10411;DHT22;5251;52.112;8.606;2022-08-11T01:00:16;18.00;92.30
10411;DHT22;5251;52.112;8.606;2022-08-11T01:14:46;17.70;92.90
10411;DHT22;5251;52.112;8.606;2022-08-11T01:45:44;17.30;94.90
10411;DHT22;5251;52.112;8.606;2022-08-11T01:48:14;17.30;95.10
10411;DHT22;5251;52.112;8.606;2022-08-11T02:07:54;17.00;95.80
10411;DHT22;5251;52.112;8.606;2022-08-11T02:10:46;17.00;95.90
10411;DHT22;5251;52.112;8.606;2022-08-11T02:13:45;17.00;96.20
10411;DHT22;5251;52.112;8.606;2022-08-11T02:19:53;16.90;96.50
10411;DHT22;5251;52.112;8.606;2022-08-11T02:25:37;16.90;96.70
10411;DHT22;5251;52.112;8.606;2022-08-11T02:31:15;16.80;97.20
10411;DHT22;5251;52.112;8.606;2022-08-11T02:37:16;16.70;97.50
10411;DHT22;5251;52.112;8.606;2022-08-11T02:39:51;16.70;97.70
10411;DHT22;5251;52.112;8.606;2022-08-11T02:42:32;16.70;97.90
10411;DHT22;5251;52.112;8.606;2022-08-11T02:59:36;16.50;98.40
10411;DHT22;5251;52.112;8.606;2022-08-11T03:05:02;16.50;98.70
10411;DHT22;5251;52.112;8.606;2022-08-11T03:07:39;16.50;98.70
10411;DHT22;5251;52.112;8.606;2022-08-11T03:15:48;16.40;99.00
10411;DHT22;5251;52.112;8.606;2022-08-11T03:21:20;16.30;98.90
10411;DHT22;5251;52.112;8.606;2022-08-11T03:24:00;16.30;99.00
10411;DHT22;5251;52.112;8.606;2022-08-11T03:26:32;16.30;99.10
10411;DHT22;5251;52.112;8.606;2022-08-11T03:29:22;16.30;99.40
10411;DHT22;5251;52.112;8.606;2022-08-11T03:34:47;16.20;99.60
10411;DHT22;5251;52.112;8.606;2022-08-11T03:46:18;16.10;99.90
10411;DHT22;5251;52.112;8.606;2022-08-11T03:52:04;16.10;99.90
10411;DHT22;5251;52.112;8.606;2022-08-11T04:10:36;15.90;99.90
10411;DHT22;5251;52.112;8.606;2022-08-11T04:46:17;15.90;99.90
10411;DHT22;5251;52.112;8.606;2022-08-11T05:09:51;16.10;99.90
10411;DHT22;5251;52.112;8.606;2022-08-11T05:14:50;16.20;99.90
10411;DHT22;5251;52.112;8.606;2022-08-11T05:17:43;16.30;99.90
10411;DHT22;5251;52.112;8.606;2022-08-11T05:20:50;16.40;99.90
10411;DHT22;5251;52.112;8.606;2022-08-11T05:23:39;16.50;99.90
10411;DHT22;5251;52.112;8.606;2022-08-11T05:26:24;16.70;99.90
10411;DHT22;5251;52.112;8.606;2022-08-11T05:32:29;17.00;99.90
10411;DHT22;5251;52.112;8.606;2022-08-11T05:35:16;17.20;99.90
10411;DHT22;5251;52.112;8.606;2022-08-11T05:37:45;17.30;99.90
10411;DHT22;5251;52.112;8.606;2022-08-11T05:40:30;17.40;99.90
10411;DHT22;5251;52.112;8.606;2022-08-11T05:43:15;17.60;99.90
10411;DHT22;5251;52.112;8.606;2022-08-11T05:46:04;17.60;99.90
10411;DHT22;5251;52.112;8.606;2022-08-11T05:48:50;17.70;99.90
10411;DHT22;5251;52.112;8.606;2022-08-11T05:51:42;17.80;99.90
10411;DHT22;5251;52.112;8.606;2022-08-11T05:54:27;17.90;99.90
10411;DHT22;5251;52.112;8.606;2022-08-11T05:57:23;18.00;99.90
10411;DHT22;5251;52.112;8.606;2022-08-11T05:59:58;18.10;99.90
10411;DHT22;5251;52.112;8.606;2022-08-11T06:02:24;18.20;99.90
10411;DHT22;5251;52.112;8.606;2022-08-11T06:04:56;18.30;99.90
10411;DHT22;5251;52.112;8.606;2022-08-11T06:07:28;18.40;99.90
10411;DHT22;5251;52.112;8.606;2022-08-11T06:09:54;18.60;99.90
10411;DHT22;5251;52.112;8.606;2022-08-11T06:12:31;18.70;99.90
10411;DHT22;5251;52.112;8.606;2022-08-11T06:15:02;18.80;99.90
10411;DHT22;5251;52.112;8.606;2022-08-11T06:17:32;18.90;99.90
10411;DHT22;5251;52.112;8.606;2022-08-11T06:20:02;19.00;99.90
10411;DHT22;5251;52.112;8.606;2022-08-11T06:22:29;19.10;99.90
10411;DHT22;5251;52.112;8.606;2022-08-11T06:24:58;19.20;99.80
10411;DHT22;5251;52.112;8.606;2022-08-11T06:27:25;19.30;99.50
10411;DHT22;5251;52.112;8.606;2022-08-11T06:29:52;19.50;99.60
10411;DHT22;5251;52.112;8.606;2022-08-11T06:32:22;19.50;99.10
10411;DHT22;5251;52.112;8.606;2022-08-11T06:37:18;19.80;98.90
10411;DHT22;5251;52.112;8.606;2022-08-11T06:40:06;19.80;98.60
10411;DHT22;5251;52.112;8.606;2022-08-11T06:47:33;20.20;98.60
10411;DHT22;5251;52.112;8.606;2022-08-11T06:50:00;20.30;97.70
10411;DHT22;5251;52.112;8.606;2022-08-11T06:52:46;20.50;97.00
10411;DHT22;5251;52.112;8.606;2022-08-11T06:55:22;20.60;96.80
10411;DHT22;5251;52.112;8.606;2022-08-11T06:58:17;20.70;96.80
10411;DHT22;5251;52.112;8.606;2022-08-11T07:01:07;20.90;96.40
10411;DHT22;5251;52.112;8.606;2022-08-11T07:03:42;21.00;95.70
10411;DHT22;5251;52.112;8.606;2022-08-11T07:13:03;21.40;94.70
10411;DHT22;5251;52.112;8.606;2022-08-11T07:15:50;21.60;93.80
10411;DHT22;5251;52.112;8.606;2022-08-11T07:18:24;21.80;92.80
10411;DHT22;5251;52.112;8.606;2022-08-11T07:21:30;21.90;91.90
10411;DHT22;5251;52.112;8.606;2022-08-11T07:24:22;22.10;90.70
10411;DHT22;5251;52.112;8.606;2022-08-11T07:27:12;22.30;90.40
10411;DHT22;5251;52.112;8.606;2022-08-11T07:30:00;22.40;90.50
10411;DHT22;5251;52.112;8.606;2022-08-11T07:32:33;22.50;89.80
10411;DHT22;5251;52.112;8.606;2022-08-11T07:35:33;22.70;89.80
10411;DHT22;5251;52.112;8.606;2022-08-11T07:38:11;22.80;88.10
10411;DHT22;5251;52.112;8.606;2022-08-11T07:40:39;22.90;87.20
10411;DHT22;5251;52.112;8.606;2022-08-11T07:43:06;23.00;85.60
10411;DHT22;5251;52.112;8.606;2022-08-11T07:45:33;23.20;85.00
10411;DHT22;5251;52.112;8.606;2022-08-11T07:48:18;23.30;86.90
10411;DHT22;5251;52.112;8.606;2022-08-11T07:51:03;23.50;86.60
10411;DHT22;5251;52.112;8.606;2022-08-11T07:53:50;23.60;86.00
10411;DHT22;5251;52.112;8.606;2022-08-11T07:56:16;23.70;85.40
10411;DHT22;5251;52.112;8.606;2022-08-11T07:58:44;23.80;85.20
10411;DHT22;5251;52.112;8.606;2022-08-11T08:01:29;24.00;83.60
10411;DHT22;5251;52.112;8.606;2022-08-11T08:04:17;24.10;85.60
10411;DHT22;5251;52.112;8.606;2022-08-11T08:07:03;24.20;83.40
10411;DHT22;5251;52.112;8.606;2022-08-11T08:09:49;24.40;83.80
10411;DHT22;5251;52.112;8.606;2022-08-11T08:12:33;24.50;82.70
10411;DHT22;5251;52.112;8.606;2022-08-11T08:15:19;24.60;79.70
10411;DHT22;5251;52.112;8.606;2022-08-11T08:18:05;24.70;77.30
10411;DHT22;5251;52.112;8.606;2022-08-11T08:20:36;24.90;76.40
10411;DHT22;5251;52.112;8.606;2022-08-11T08:23:04;24.90;74.90
10411;DHT22;5251;52.112;8.606;2022-08-11T08:25:32;25.10;75.60
10411;DHT22;5251;52.112;8.606;2022-08-11T08:28:02;25.20;76.20
10411;DHT22;5251;52.112;8.606;2022-08-11T08:30:30;25.30;75.30
10411;DHT22;5251;52.112;8.606;2022-08-11T08:33:41;25.50;75.00
10411;DHT22;5251;52.112;8.606;2022-08-11T08:36:08;25.60;74.50
10411;DHT22;5251;52.112;8.606;2022-08-11T08:41:04;25.90;71.50
10411;DHT22;5251;52.112;8.606;2022-08-11T08:43:31;26.00;71.30
10411;DHT22;5251;52.112;8.606;2022-08-11T08:45:58;26.00;71.20
10411;DHT22;5251;52.112;8.606;2022-08-11T08:48:25;26.20;73.20
10411;DHT22;5251;52.112;8.606;2022-08-11T08:50:59;26.30;69.90
10411;DHT22;5251;52.112;8.606;2022-08-11T08:53:48;26.40;69.60
10411;DHT22;5251;52.112;8.606;2022-08-11T08:56:15;26.50;69.00
10411;DHT22;5251;52.112;8.606;2022-08-11T08:58:41;26.60;68.90
10411;DHT22;5251;52.112;8.606;2022-08-11T09:01:10;26.70;66.90
10411;DHT22;5251;52.112;8.606;2022-08-11T09:03:36;26.80;63.80
10411;DHT22;5251;52.112;8.606;2022-08-11T09:06:03;26.90;65.40
10411;DHT22;5251;52.112;8.606;2022-08-11T09:08:30;26.90;64.10
10411;DHT22;5251;52.112;8.606;2022-08-11T09:10:57;27.00;65.00
10411;DHT22;5251;52.112;8.606;2022-08-11T09:13:45;27.10;64.60
10411;DHT22;5251;52.112;8.606;2022-08-11T09:16:12;27.30;65.70
10411;DHT22;5251;52.112;8.606;2022-08-11T09:18:39;27.40;65.30
10411;DHT22;5251;52.112;8.606;2022-08-11T09:21:13;27.50;63.70
10411;DHT22;5251;52.112;8.606;2022-08-11T09:23:40;27.60;60.10
10411;DHT22;5251;52.112;8.606;2022-08-11T09:26:26;27.70;63.40
10411;DHT22;5251;52.112;8.606;2022-08-11T09:29:28;27.80;61.10
10411;DHT22;5251;52.112;8.606;2022-08-11T09:31:55;27.80;60.00
10411;DHT22;5251;52.112;8.606;2022-08-11T09:34:22;27.90;60.70
10411;DHT22;5251;52.112;8.606;2022-08-11T09:36:49;28.00;60.50
10411;DHT22;5251;52.112;8.606;2022-08-11T09:39:37;28.00;59.40
10411;DHT22;5251;52.112;8.606;2022-08-11T09:42:22;28.10;59.30
10411;DHT22;5251;52.112;8.606;2022-08-11T09:45:10;28.20;59.20
10411;DHT22;5251;52.112;8.606;2022-08-11T09:47:37;28.30;56.80
10411;DHT22;5251;52.112;8.606;2022-08-11T09:50:04;28.30;56.50
10411;DHT22;5251;52.112;8.606;2022-08-11T09:52:49;28.40;56.60
10411;DHT22;5251;52.112;8.606;2022-08-11T09:55:15;28.50;55.80
10411;DHT22;5251;52.112;8.606;2022-08-11T09:57:46;28.50;56.10
10411;DHT22;5251;52.112;8.606;2022-08-11T10:00:35;28.60;57.40
10411;DHT22;5251;52.112;8.606;2022-08-11T10:03:18;28.60;55.90
10411;DHT22;5251;52.112;8.606;2022-08-11T10:05:49;28.70;55.40
10411;DHT22;5251;52.112;8.606;2022-08-11T10:08:35;28.70;55.80
10411;DHT22;5251;52.112;8.606;2022-08-11T10:11:02;28.70;56.30
10411;DHT22;5251;52.112;8.606;2022-08-11T10:13:33;28.80;55.90
10411;DHT22;5251;52.112;8.606;2022-08-11T10:16:23;28.80;56.00
10411;DHT22;5251;52.112;8.606;2022-08-11T10:18:51;28.90;56.40
10411;DHT22;5251;52.112;8.606;2022-08-11T10:23:51;29.00;54.00
10411;DHT22;5251;52.112;8.606;2022-08-11T10:26:37;29.00;54.30
10411;DHT22;5251;52.112;8.606;2022-08-11T10:29:35;29.10;52.70
10411;DHT22;5251;52.112;8.606;2022-08-11T10:32:28;29.20;52.50
10411;DHT22;5251;52.112;8.606;2022-08-11T10:35:17;29.20;52.80
10411;DHT22;5251;52.112;8.606;2022-08-11T10:37:45;29.30;53.30
10411;DHT22;5251;52.112;8.606;2022-08-11T10:40:17;29.30;52.80
10411;DHT22;5251;52.112;8.606;2022-08-11T10:42:53;29.30;51.90
10411;DHT22;5251;52.112;8.606;2022-08-11T10:45:39;29.30;51.90
10411;DHT22;5251;52.112;8.606;2022-08-11T10:48:34;29.30;50.90
10411;DHT22;5251;52.112;8.606;2022-08-11T10:51:00;29.30;51.30
10411;DHT22;5251;52.112;8.606;2022-08-11T10:53:44;29.40;52.00
10411;DHT22;5251;52.112;8.606;2022-08-11T10:56:29;29.40;49.60
10411;DHT22;5251;52.112;8.606;2022-08-11T10:59:15;29.40;50.70
10411;DHT22;5251;52.112;8.606;2022-08-11T11:01:43;29.40;51.10
10411;DHT22;5251;52.112;8.606;2022-08-11T11:04:42;29.40;49.50
10411;DHT22;5251;52.112;8.606;2022-08-11T11:07:21;29.50;50.80
10411;DHT22;5251;52.112;8.606;2022-08-11T11:09:52;29.50;49.60
10411;DHT22;5251;52.112;8.606;2022-08-11T11:12:23;29.50;49.00
10411;DHT22;5251;52.112;8.606;2022-08-11T11:15:08;29.60;52.00
10411;DHT22;5251;52.112;8.606;2022-08-11T11:18:23;29.60;50.60
10411;DHT22;5251;52.112;8.606;2022-08-11T11:21:06;29.60;50.10
10411;DHT22;5251;52.112;8.606;2022-08-11T11:23:42;29.70;50.20
10411;DHT22;5251;52.112;8.606;2022-08-11T11:37:39;29.90;49.60
10411;DHT22;5251;52.112;8.606;2022-08-11T11:40:09;29.90;49.20
10411;DHT22;5251;52.112;8.606;2022-08-11T11:42:36;30.00;49.00
10411;DHT22;5251;52.112;8.606;2022-08-11T11:45:03;30.00;49.10
10411;DHT22;5251;52.112;8.606;2022-08-11T11:47:31;30.00;49.90
10411;DHT22;5251;52.112;8.606;2022-08-11T11:49:57;30.10;49.40
10411;DHT22;5251;52.112;8.606;2022-08-11T11:52:23;30.10;49.40
10411;DHT22;5251;52.112;8.606;2022-08-11T11:54:54;30.10;47.50
10411;DHT22;5251;52.112;8.606;2022-08-11T11:57:20;30.10;45.00
10411;DHT22;5251;52.112;8.606;2022-08-11T12:00:07;30.10;46.50
10411;DHT22;5251;52.112;8.606;2022-08-11T12:02:52;30.20;45.40
10411;DHT22;5251;52.112;8.606;2022-08-11T12:05:19;30.20;45.20
10411;DHT22;5251;52.112;8.606;2022-08-11T12:07:46;30.20;43.80
10411;DHT22;5251;52.112;8.606;2022-08-11T12:10:30;30.30;44.50
10411;DHT22;5251;52.112;8.606;2022-08-11T12:12:58;30.30;44.60
10411;DHT22;5251;52.112;8.606;2022-08-11T12:15:46;30.30;45.30
10411;DHT22;5251;52.112;8.606;2022-08-11T12:18:13;30.30;44.60
10411;DHT22;5251;52.112;8.606;2022-08-11T12:20:40;30.40;44.00
10411;DHT22;5251;52.112;8.606;2022-08-11T12:23:06;30.50;43.70
10411;DHT22;5251;52.112;8.606;2022-08-11T12:25:51;30.50;43.30
10411;DHT22;5251;52.112;8.606;2022-08-11T12:28:35;30.60;43.40
10411;DHT22;5251;52.112;8.606;2022-08-11T12:31:02;30.60;43.60
10411;DHT22;5251;52.112;8.606;2022-08-11T12:33:28;30.70;43.20
10411;DHT22;5251;52.112;8.606;2022-08-11T12:35:58;30.70;43.30
10411;DHT22;5251;52.112;8.606;2022-08-11T12:38:25;30.70;42.40
10411;DHT22;5251;52.112;8.606;2022-08-11T12:40:52;30.70;42.50
10411;DHT22;5251;52.112;8.606;2022-08-11T12:43:37;30.70;43.50
10411;DHT22;5251;52.112;8.606;2022-08-11T12:46:30;30.80;43.30
10411;DHT22;5251;52.112;8.606;2022-08-11T12:48:58;30.80;43.80
10411;DHT22;5251;52.112;8.606;2022-08-11T12:51:54;30.80;43.00
10411;DHT22;5251;52.112;8.606;2022-08-11T12:57:36;30.70;42.70
10411;DHT22;5251;52.112;8.606;2022-08-11T13:00:21;30.70;43.60
10411;DHT22;5251;52.112;8.606;2022-08-11T13:03:08;30.80;43.80
10411;DHT22;5251;52.112;8.606;2022-08-11T13:05:56;30.80;43.50
10411;DHT22;5251;52.112;8.606;2022-08-11T13:08:23;30.80;42.60
10411;DHT22;5251;52.112;8.606;2022-08-11T13:10:51;30.80;43.10
10411;DHT22;5251;52.112;8.606;2022-08-11T13:13:37;30.80;42.20
10411;DHT22;5251;52.112;8.606;2022-08-11T13:16:05;30.90;41.80
10411;DHT22;5251;52.112;8.606;2022-08-11T13:18:33;30.90;41.70
10411;DHT22;5251;52.112;8.606;2022-08-11T13:20:59;31.00;41.80
10411;DHT22;5251;52.112;8.606;2022-08-11T13:23:25;31.00;42.60
10411;DHT22;5251;52.112;8.606;2022-08-11T13:25:52;31.10;41.00
10411;DHT22;5251;52.112;8.606;2022-08-11T13:28:21;31.10;40.10
10411;DHT22;5251;52.112;8.606;2022-08-11T13:30:49;31.10;41.40
10411;DHT22;5251;52.112;8.606;2022-08-11T13:33:50;31.20;41.80
10411;DHT22;5251;52.112;8.606;2022-08-11T13:36:20;31.20;40.20
10411;DHT22;5251;52.112;8.606;2022-08-11T13:38:47;31.20;40.20
10411;DHT22;5251;52.112;8.606;2022-08-11T13:41:13;31.20;40.30
10411;DHT22;5251;52.112;8.606;2022-08-11T13:43:58;31.20;40.20
10411;DHT22;5251;52.112;8.606;2022-08-11T13:46:24;31.20;40.10
10411;DHT22;5251;52.112;8.606;2022-08-11T13:48:54;31.20;39.80
10411;DHT22;5251;52.112;8.606;2022-08-11T13:51:23;31.30;41.00
10411;DHT22;5251;52.112;8.606;2022-08-11T13:54:00;31.30;39.90
10411;DHT22;5251;52.112;8.606;2022-08-11T13:56:27;31.30;40.30
10411;DHT22;5251;52.112;8.606;2022-08-11T13:58:55;31.40;41.10
10411;DHT22;5251;52.112;8.606;2022-08-11T14:01:27;31.40;41.90
10411;DHT22;5251;52.112;8.606;2022-08-11T14:03:54;31.40;40.30
10411;DHT22;5251;52.112;8.606;2022-08-11T14:06:21;31.50;41.70
10411;DHT22;5251;52.112;8.606;2022-08-11T14:08:48;31.50;40.00
10411;DHT22;5251;52.112;8.606;2022-08-11T14:11:18;31.60;41.20
10411;DHT22;5251;52.112;8.606;2022-08-11T14:14:04;31.60;39.80
10411;DHT22;5251;52.112;8.606;2022-08-11T14:16:36;31.60;41.10
10411;DHT22;5251;52.112;8.606;2022-08-11T14:19:06;31.60;39.60
10411;DHT22;5251;52.112;8.606;2022-08-11T14:21:37;31.60;40.40
10411;DHT22;5251;52.112;8.606;2022-08-11T14:24:23;31.70;41.20
10411;DHT22;5251;52.112;8.606;2022-08-11T14:26:50;31.70;40.00
10411;DHT22;5251;52.112;8.606;2022-08-11T14:29:20;31.70;40.00
10411;DHT22;5251;52.112;8.606;2022-08-11T14:31:52;31.80;40.00
10411;DHT22;5251;52.112;8.606;2022-08-11T14:34:21;31.80;40.10
10411;DHT22;5251;52.112;8.606;2022-08-11T14:36:53;31.80;38.90
10411;DHT22;5251;52.112;8.606;2022-08-11T14:39:25;31.80;38.30
10411;DHT22;5251;52.112;8.606;2022-08-11T14:41:59;31.70;38.30
10411;DHT22;5251;52.112;8.606;2022-08-11T14:45:05;31.70;37.80
10411;DHT22;5251;52.112;8.606;2022-08-11T14:47:53;31.70;38.80
10411;DHT22;5251;52.112;8.606;2022-08-11T14:50:24;31.70;38.50
10411;DHT22;5251;52.112;8.606;2022-08-11T14:52:52;31.70;39.00
10411;DHT22;5251;52.112;8.606;2022-08-11T14:55:20;31.70;38.40
10411;DHT22;5251;52.112;8.606;2022-08-11T14:58:08;31.70;37.50
10411;DHT22;5251;52.112;8.606;2022-08-11T15:00:35;31.70;36.90
10411;DHT22;5251;52.112;8.606;2022-08-11T15:03:03;31.70;35.70
10411;DHT22;5251;52.112;8.606;2022-08-11T15:05:38;31.70;36.10
10411;DHT22;5251;52.112;8.606;2022-08-11T15:08:06;31.70;38.10
10411;DHT22;5251;52.112;8.606;2022-08-11T15:10:32;31.70;36.60
10411;DHT22;5251;52.112;8.606;2022-08-11T15:12:59;31.70;37.90
10411;DHT22;5251;52.112;8.606;2022-08-11T15:15:25;31.70;37.40
10411;DHT22;5251;52.112;8.606;2022-08-11T15:18:12;31.70;36.90
10411;DHT22;5251;52.112;8.606;2022-08-11T15:20:43;31.70;37.80
10411;DHT22;5251;52.112;8.606;2022-08-11T15:23:28;31.70;36.90
10411;DHT22;5251;52.112;8.606;2022-08-11T15:26:18;31.70;36.90
10411;DHT22;5251;52.112;8.606;2022-08-11T15:29:07;31.70;36.90
10411;DHT22;5251;52.112;8.606;2022-08-11T15:31:52;31.70;37.30
10411;DHT22;5251;52.112;8.606;2022-08-11T15:34:38;31.70;36.90
10411;DHT22;5251;52.112;8.606;2022-08-11T15:37:24;31.70;37.50
10411;DHT22;5251;52.112;8.606;2022-08-11T15:39:57;31.70;36.90
10411;DHT22;5251;52.112;8.606;2022-08-11T15:43:02;31.70;36.30
10411;DHT22;5251;52.112;8.606;2022-08-11T15:45:50;31.60;35.80
10411;DHT22;5251;52.112;8.606;2022-08-11T15:53:57;31.60;35.70
10411;DHT22;5251;52.112;8.606;2022-08-11T15:56:26;31.60;36.50
10411;DHT22;5251;52.112;8.606;2022-08-11T15:58:54;31.60;36.20
10411;DHT22;5251;52.112;8.606;2022-08-11T16:01:41;31.60;35.90
10411;DHT22;5251;52.112;8.606;2022-08-11T16:04:28;31.60;36.40
10411;DHT22;5251;52.112;8.606;2022-08-11T16:07:05;31.60;37.50
10411;DHT22;5251;52.112;8.606;2022-08-11T16:09:36;31.60;36.90
10411;DHT22;5251;52.112;8.606;2022-08-11T16:12:08;31.60;37.20
10411;DHT22;5251;52.112;8.606;2022-08-11T16:14:38;31.60;38.00
10411;DHT22;5251;52.112;8.606;2022-08-11T16:17:26;31.50;37.50
10411;DHT22;5251;52.112;8.606;2022-08-11T16:19:54;31.50;37.80
10411;DHT22;5251;52.112;8.606;2022-08-11T16:22:23;31.50;37.50
10411;DHT22;5251;52.112;8.606;2022-08-11T16:24:53;31.50;36.80
10411;DHT22;5251;52.112;8.606;2022-08-11T16:27:20;31.40;37.70
10411;DHT22;5251;52.112;8.606;2022-08-11T16:29:49;31.40;37.80
10411;DHT22;5251;52.112;8.606;2022-08-11T16:32:19;31.40;38.30
10411;DHT22;5251;52.112;8.606;2022-08-11T16:34:54;31.40;38.80
10411;DHT22;5251;52.112;8.606;2022-08-11T16:37:41;31.30;38.50
10411;DHT22;5251;52.112;8.606;2022-08-11T16:40:26;31.30;38.80
10411;DHT22;5251;52.112;8.606;2022-08-11T16:42:53;31.20;38.10
10411;DHT22;5251;52.112;8.606;2022-08-11T16:45:40;31.20;39.30
10411;DHT22;5251;52.112;8.606;2022-08-11T16:48:30;31.20;38.70
10411;DHT22;5251;52.112;8.606;2022-08-11T16:50:56;31.10;38.40
10411;DHT22;5251;52.112;8.606;2022-08-11T16:53:26;31.10;38.50
10411;DHT22;5251;52.112;8.606;2022-08-11T16:55:53;31.00;39.10
10411;DHT22;5251;52.112;8.606;2022-08-11T16:58:21;30.90;39.10
10411;DHT22;5251;52.112;8.606;2022-08-11T17:01:07;30.90;38.90
10411;DHT22;5251;52.112;8.606;2022-08-11T17:03:34;30.90;38.00
10411;DHT22;5251;52.112;8.606;2022-08-11T17:06:23;30.90;38.40
10411;DHT22;5251;52.112;8.606;2022-08-11T17:09:10;30.80;39.10
10411;DHT22;5251;52.112;8.606;2022-08-11T17:11:57;30.80;39.00
10411;DHT22;5251;52.112;8.606;2022-08-11T17:14:49;30.70;39.50
10411;DHT22;5251;52.112;8.606;2022-08-11T17:17:20;30.70;39.20
10411;DHT22;5251;52.112;8.606;2022-08-11T17:19:51;30.60;39.40
10411;DHT22;5251;52.112;8.606;2022-08-11T17:22:19;30.60;39.00
10411;DHT22;5251;52.112;8.606;2022-08-11T17:25:05;30.50;39.30
10411;DHT22;5251;52.112;8.606;2022-08-11T17:27:33;30.50;39.80
10411;DHT22;5251;52.112;8.606;2022-08-11T17:30:04;30.50;39.60
10411;DHT22;5251;52.112;8.606;2022-08-11T17:32:34;30.40;38.80
10411;DHT22;5251;52.112;8.606;2022-08-11T17:35:21;30.40;40.10
10411;DHT22;5251;52.112;8.606;2022-08-11T17:38:03;30.30;39.40
10411;DHT22;5251;52.112;8.606;2022-08-11T17:40:32;30.30;39.00
10411;DHT22;5251;52.112;8.606;2022-08-11T17:42:59;30.30;39.60
10411;DHT22;5251;52.112;8.606;2022-08-11T17:45:45;30.20;39.60
10411;DHT22;5251;52.112;8.606;2022-08-11T17:48:35;30.10;39.50
10411;DHT22;5251;52.112;8.606;2022-08-11T17:51:18;30.10;39.00
10411;DHT22;5251;52.112;8.606;2022-08-11T17:54:04;30.00;39.50
10411;DHT22;5251;52.112;8.606;2022-08-11T17:56:49;29.90;39.40
10411;DHT22;5251;52.112;8.606;2022-08-11T17:59:34;29.90;39.80
10411;DHT22;5251;52.112;8.606;2022-08-11T18:02:38;29.80;39.70
10411;DHT22;5251;52.112;8.606;2022-08-11T18:05:29;29.80;40.80
10411;DHT22;5251;52.112;8.606;2022-08-11T18:07:58;29.70;40.20
10411;DHT22;5251;52.112;8.606;2022-08-11T18:10:43;29.70;41.60
10411;DHT22;5251;52.112;8.606;2022-08-11T18:13:30;29.60;39.90
10411;DHT22;5251;52.112;8.606;2022-08-11T18:16:17;29.60;40.30
10411;DHT22;5251;52.112;8.606;2022-08-11T18:19:02;29.60;40.40
10411;DHT22;5251;52.112;8.606;2022-08-11T18:21:47;29.50;40.90
10411;DHT22;5251;52.112;8.606;2022-08-11T18:24:37;29.40;41.50
10411;DHT22;5251;52.112;8.606;2022-08-11T18:27:27;29.40;40.90
10411;DHT22;5251;52.112;8.606;2022-08-11T18:30:13;29.30;40.80
10411;DHT22;5251;52.112;8.606;2022-08-11T18:33:00;29.30;41.20
10411;DHT22;5251;52.112;8.606;2022-08-11T18:35:54;29.20;41.20
10411;DHT22;5251;52.112;8.606;2022-08-11T18:38:41;29.10;41.20
10411;DHT22;5251;52.112;8.606;2022-08-11T18:41:28;29.00;41.60
10411;DHT22;5251;52.112;8.606;2022-08-11T18:44:16;29.00;41.70
10411;DHT22;5251;52.112;8.606;2022-08-11T18:47:06;28.90;42.10
10411;DHT22;5251;52.112;8.606;2022-08-11T18:49:52;28.80;42.10
10411;DHT22;5251;52.112;8.606;2022-08-11T18:52:39;28.70;42.10
10411;DHT22;5251;52.112;8.606;2022-08-11T18:55:25;28.60;42.60
10411;DHT22;5251;52.112;8.606;2022-08-11T18:58:11;28.50;42.80
10411;DHT22;5251;52.112;8.606;2022-08-11T19:00:59;28.40;44.80
10411;DHT22;5251;52.112;8.606;2022-08-11T19:03:45;28.30;44.80
10411;DHT22;5251;52.112;8.606;2022-08-11T19:06:30;28.20;45.30
10411;DHT22;5251;52.112;8.606;2022-08-11T19:09:17;28.10;47.80
10411;DHT22;5251;52.112;8.606;2022-08-11T19:12:03;28.00;48.10
10411;DHT22;5251;52.112;8.606;2022-08-11T19:14:50;27.80;48.90
10411;DHT22;5251;52.112;8.606;2022-08-11T19:17:38;27.70;49.60
10411;DHT22;5251;52.112;8.606;2022-08-11T19:20:25;27.40;50.10
10411;DHT22;5251;52.112;8.606;2022-08-11T19:23:11;27.30;50.50
10411;DHT22;5251;52.112;8.606;2022-08-11T19:25:58;27.10;50.80
10411;DHT22;5251;52.112;8.606;2022-08-11T19:28:45;26.90;51.20
10411;DHT22;5251;52.112;8.606;2022-08-11T19:31:31;26.70;51.60
10411;DHT22;5251;52.112;8.606;2022-08-11T19:34:18;26.60;52.00
10411;DHT22;5251;52.112;8.606;2022-08-11T19:37:05;26.40;51.90
10411;DHT22;5251;52.112;8.606;2022-08-11T19:39:54;26.20;51.80
10411;DHT22;5251;52.112;8.606;2022-08-11T19:42:42;26.00;52.50
10411;DHT22;5251;52.112;8.606;2022-08-11T19:45:28;25.90;52.20
10411;DHT22;5251;52.112;8.606;2022-08-11T19:48:12;25.70;52.70
10411;DHT22;5251;52.112;8.606;2022-08-11T19:50:56;25.60;52.90
10411;DHT22;5251;52.112;8.606;2022-08-11T19:53:42;25.40;52.60
10411;DHT22;5251;52.112;8.606;2022-08-11T19:56:27;25.30;53.10
10411;DHT22;5251;52.112;8.606;2022-08-11T19:59:12;25.10;53.60
10411;DHT22;5251;52.112;8.606;2022-08-11T20:01:57;25.00;54.20
10411;DHT22;5251;52.112;8.606;2022-08-11T20:04:41;24.90;54.40
10411;DHT22;5251;52.112;8.606;2022-08-11T20:07:26;24.70;55.10
10411;DHT22;5251;52.112;8.606;2022-08-11T20:10:12;24.70;55.90
10411;DHT22;5251;52.112;8.606;2022-08-11T20:12:57;24.50;56.30
10411;DHT22;5251;52.112;8.606;2022-08-11T20:15:43;24.40;56.60
10411;DHT22;5251;52.112;8.606;2022-08-11T20:18:27;24.30;57.00
10411;DHT22;5251;52.112;8.606;2022-08-11T20:21:13;24.20;57.50
10411;DHT22;5251;52.112;8.606;2022-08-11T20:23:59;24.10;58.40
10411;DHT22;5251;52.112;8.606;2022-08-11T20:26:45;24.00;59.40
10411;DHT22;5251;52.112;8.606;2022-08-11T20:29:31;23.90;59.40
10411;DHT22;5251;52.112;8.606;2022-08-11T20:32:19;23.80;59.20
10411;DHT22;5251;52.112;8.606;2022-08-11T20:35:04;23.70;58.80
10411;DHT22;5251;52.112;8.606;2022-08-11T20:37:52;23.60;58.80
10411;DHT22;5251;52.112;8.606;2022-08-11T20:40:38;23.50;58.70
10411;DHT22;5251;52.112;8.606;2022-08-11T20:43:23;23.40;59.40
10411;DHT22;5251;52.112;8.606;2022-08-11T20:46:09;23.30;60.00
10411;DHT22;5251;52.112;8.606;2022-08-11T20:48:54;23.20;60.40
10411;DHT22;5251;52.112;8.606;2022-08-11T20:51:40;23.10;61.30
10411;DHT22;5251;52.112;8.606;2022-08-11T20:54:26;23.10;62.50
10411;DHT22;5251;52.112;8.606;2022-08-11T20:57:12;23.00;63.60